sensor_id;sensor_type;location;lat;lon;timestamp;P1;durP1;ratioP1;P2;durP2;ratioP2
5381;SDS011;2714;49.852;6.564;2023-01-28T00:02:34;15.27;;;7.40;;
5381;SDS011;2714;49.852;6.564;2023-01-28T00:06:35;9.33;;;6.30;;
5381;SDS011;2714;49.852;6.564;2023-01-28T00:10:36;8.87;;;6.20;;
5381;SDS011;2714;49.852;6.564;2023-01-28T00:14:40;9.00;;;5.80;;
5381;SDS011;2714;49.852;6.564;2023-01-28T00:18:40;7.97;;;5.33;;
5381;SDS011;2714;49.852;6.564;2023-01-28T00:22:45;7.83;;;5.83;;
5381;SDS011;2714;49.852;6.564;2023-01-28T00:26:49;7.57;;;5.30;;
5381;SDS011;2714;49.852;6.564;2023-01-28T00:30:50;7.93;;;5.63;;
5381;SDS011;2714;49.852;6.564;2023-01-28T00:34:50;7.50;;;5.50;;
5381;SDS011;2714;49.852;6.564;2023-01-28T00:38:55;7.30;;;5.23;;
5381;SDS011;2714;49.852;6.564;2023-01-28T00:42:57;6.30;;;4.80;;
5381;SDS011;2714;49.852;6.564;2023-01-28T00:46:58;7.30;;;5.53;;
5381;SDS011;2714;49.852;6.564;2023-01-28T00:50:59;9.00;;;5.83;;
5381;SDS011;2714;49.852;6.564;2023-01-28T00:55:00;8.00;;;5.37;;
5381;SDS011;2714;49.852;6.564;2023-01-28T00:59:01;7.73;;;5.60;;
5381;SDS011;2714;49.852;6.564;2023-01-28T01:03:02;9.03;;;5.50;;
5381;SDS011;2714;49.852;6.564;2023-01-28T01:07:03;7.40;;;5.17;;
5381;SDS011;2714;49.852;6.564;2023-01-28T01:11:03;7.77;;;5.67;;
5381;SDS011;2714;49.852;6.564;2023-01-28T01:15:06;9.10;;;6.33;;
5381;SDS011;2714;49.852;6.564;2023-01-28T01:19:09;7.63;;;5.43;;
5381;SDS011;2714;49.852;6.564;2023-01-28T01:23:10;9.13;;;6.00;;
5381;SDS011;2714;49.852;6.564;2023-01-28T01:27:11;9.90;;;6.40;;
5381;SDS011;2714;49.852;6.564;2023-01-28T01:31:16;7.30;;;5.73;;
5381;SDS011;2714;49.852;6.564;2023-01-28T01:35:18;11.97;;;6.90;;
5381;SDS011;2714;49.852;6.564;2023-01-28T01:39:19;8.43;;;6.00;;
5381;SDS011;2714;49.852;6.564;2023-01-28T01:43:20;11.40;;;7.40;;
5381;SDS011;2714;49.852;6.564;2023-01-28T01:51:29;10.70;;;6.80;;
5381;SDS011;2714;49.852;6.564;2023-01-28T01:55:33;9.30;;;6.40;;
5381;SDS011;2714;49.852;6.564;2023-01-28T01:59:35;7.47;;;5.30;;
5381;SDS011;2714;49.852;6.564;2023-01-28T02:03:39;8.20;;;6.07;;
5381;SDS011;2714;49.852;6.564;2023-01-28T02:07:51;8.00;;;5.57;;
5381;SDS011;2714;49.852;6.564;2023-01-28T02:12:20;8.77;;;5.43;;
5381;SDS011;2714;49.852;6.564;2023-01-28T02:16:23;9.00;;;6.40;;
5381;SDS011;2714;49.852;6.564;2023-01-28T02:20:39;8.93;;;6.33;;
5381;SDS011;2714;49.852;6.564;2023-01-28T02:29:26;10.77;;;6.03;;
5381;SDS011;2714;49.852;6.564;2023-01-28T02:33:31;8.97;;;6.00;;
5381;SDS011;2714;49.852;6.564;2023-01-28T02:37:43;9.00;;;6.47;;
5381;SDS011;2714;49.852;6.564;2023-01-28T02:51:00;9.90;;;7.10;;
5381;SDS011;2714;49.852;6.564;2023-01-28T02:55:17;9.50;;;6.37;;
5381;SDS011;2714;49.852;6.564;2023-01-28T03:07:56;12.60;;;7.60;;
5381;SDS011;2714;49.852;6.564;2023-01-28T03:11:59;12.70;;;6.80;;
5381;SDS011;2714;49.852;6.564;2023-01-28T03:16:21;10.67;;;7.40;;
5381;SDS011;2714;49.852;6.564;2023-01-28T03:20:47;7.77;;;6.03;;
5381;SDS011;2714;49.852;6.564;2023-01-28T03:25:07;8.40;;;6.20;;
5381;SDS011;2714;49.852;6.564;2023-01-28T03:29:29;8.37;;;6.10;;
5381;SDS011;2714;49.852;6.564;2023-01-28T03:33:50;7.90;;;6.03;;
5381;SDS011;2714;49.852;6.564;2023-01-28T03:38:12;8.70;;;6.07;;
5381;SDS011;2714;49.852;6.564;2023-01-28T03:42:21;9.97;;;7.20;;
5381;SDS011;2714;49.852;6.564;2023-01-28T03:46:22;11.10;;;8.17;;
5381;SDS011;2714;49.852;6.564;2023-01-28T03:50:23;10.23;;;6.97;;
5381;SDS011;2714;49.852;6.564;2023-01-28T03:54:23;8.60;;;6.10;;
5381;SDS011;2714;49.852;6.564;2023-01-28T03:58:24;9.93;;;7.40;;
5381;SDS011;2714;49.852;6.564;2023-01-28T04:02:53;12.27;;;8.00;;
5381;SDS011;2714;49.852;6.564;2023-01-28T04:06:53;9.60;;;6.50;;
5381;SDS011;2714;49.852;6.564;2023-01-28T04:10:54;10.50;;;6.40;;
5381;SDS011;2714;49.852;6.564;2023-01-28T04:14:55;9.80;;;6.47;;
5381;SDS011;2714;49.852;6.564;2023-01-28T04:18:55;8.23;;;5.80;;
5381;SDS011;2714;49.852;6.564;2023-01-28T04:22:57;12.43;;;6.30;;
5381;SDS011;2714;49.852;6.564;2023-01-28T04:26:58;14.87;;;6.63;;
5381;SDS011;2714;49.852;6.564;2023-01-28T04:30:58;9.37;;;6.93;;
5381;SDS011;2714;49.852;6.564;2023-01-28T04:34:59;9.27;;;6.80;;
5381;SDS011;2714;49.852;6.564;2023-01-28T04:39:02;7.60;;;6.07;;
5381;SDS011;2714;49.852;6.564;2023-01-28T04:43:03;8.93;;;6.10;;
5381;SDS011;2714;49.852;6.564;2023-01-28T04:47:03;10.63;;;6.73;;
5381;SDS011;2714;49.852;6.564;2023-01-28T04:51:04;8.27;;;6.27;;
5381;SDS011;2714;49.852;6.564;2023-01-28T04:55:05;7.97;;;5.20;;
5381;SDS011;2714;49.852;6.564;2023-01-28T04:59:06;8.00;;;5.60;;
5381;SDS011;2714;49.852;6.564;2023-01-28T05:03:07;7.33;;;5.00;;
5381;SDS011;2714;49.852;6.564;2023-01-28T05:07:08;7.93;;;5.60;;
5381;SDS011;2714;49.852;6.564;2023-01-28T05:11:08;8.37;;;5.90;;
5381;SDS011;2714;49.852;6.564;2023-01-28T05:15:09;6.90;;;4.97;;
5381;SDS011;2714;49.852;6.564;2023-01-28T05:19:09;7.00;;;5.57;;
5381;SDS011;2714;49.852;6.564;2023-01-28T05:23:10;8.10;;;5.90;;
5381;SDS011;2714;49.852;6.564;2023-01-28T05:27:10;9.13;;;6.37;;
5381;SDS011;2714;49.852;6.564;2023-01-28T05:31:11;7.63;;;5.37;;
5381;SDS011;2714;49.852;6.564;2023-01-28T05:35:12;9.30;;;6.07;;
5381;SDS011;2714;49.852;6.564;2023-01-28T05:39:12;10.03;;;6.57;;
5381;SDS011;2714;49.852;6.564;2023-01-28T05:43:13;8.20;;;5.43;;
5381;SDS011;2714;49.852;6.564;2023-01-28T05:47:16;10.00;;;5.83;;
5381;SDS011;2714;49.852;6.564;2023-01-28T05:51:17;12.00;;;7.73;;
5381;SDS011;2714;49.852;6.564;2023-01-28T05:55:17;10.63;;;7.10;;
5381;SDS011;2714;49.852;6.564;2023-01-28T05:59:18;11.40;;;6.47;;
5381;SDS011;2714;49.852;6.564;2023-01-28T06:03:19;7.80;;;5.77;;
5381;SDS011;2714;49.852;6.564;2023-01-28T06:07:19;12.83;;;6.90;;
5381;SDS011;2714;49.852;6.564;2023-01-28T06:11:20;9.50;;;6.30;;
5381;SDS011;2714;49.852;6.564;2023-01-28T06:15:21;10.93;;;6.90;;
5381;SDS011;2714;49.852;6.564;2023-01-28T06:19:21;9.40;;;6.43;;
5381;SDS011;2714;49.852;6.564;2023-01-28T06:23:22;11.17;;;7.20;;
5381;SDS011;2714;49.852;6.564;2023-01-28T06:27:22;10.07;;;6.63;;
5381;SDS011;2714;49.852;6.564;2023-01-28T06:31:23;8.77;;;6.43;;
5381;SDS011;2714;49.852;6.564;2023-01-28T06:35:24;10.73;;;6.80;;
5381;SDS011;2714;49.852;6.564;2023-01-28T06:39:24;11.03;;;6.13;;
5381;SDS011;2714;49.852;6.564;2023-01-28T06:43:27;10.03;;;6.60;;
5381;SDS011;2714;49.852;6.564;2023-01-28T06:47:29;9.97;;;7.50;;
5381;SDS011;2714;49.852;6.564;2023-01-28T06:51:30;8.83;;;6.80;;
5381;SDS011;2714;49.852;6.564;2023-01-28T06:55:30;8.73;;;6.53;;
5381;SDS011;2714;49.852;6.564;2023-01-28T06:59:31;9.80;;;7.20;;
5381;SDS011;2714;49.852;6.564;2023-01-28T07:03:32;9.53;;;6.83;;
5381;SDS011;2714;49.852;6.564;2023-01-28T07:07:32;12.20;;;7.70;;
5381;SDS011;2714;49.852;6.564;2023-01-28T07:11:33;11.50;;;8.57;;
5381;SDS011;2714;49.852;6.564;2023-01-28T07:15:34;10.77;;;7.80;;
5381;SDS011;2714;49.852;6.564;2023-01-28T07:19:34;11.50;;;8.30;;
5381;SDS011;2714;49.852;6.564;2023-01-28T07:23:35;11.70;;;8.30;;
5381;SDS011;2714;49.852;6.564;2023-01-28T07:27:36;11.83;;;7.80;;
5381;SDS011;2714;49.852;6.564;2023-01-28T07:31:36;12.20;;;8.70;;
5381;SDS011;2714;49.852;6.564;2023-01-28T07:35:37;12.87;;;8.30;;
5381;SDS011;2714;49.852;6.564;2023-01-28T07:39:37;16.50;;;7.97;;
5381;SDS011;2714;49.852;6.564;2023-01-28T07:43:38;9.73;;;7.50;;
5381;SDS011;2714;49.852;6.564;2023-01-28T07:47:38;12.63;;;8.53;;
5381;SDS011;2714;49.852;6.564;2023-01-28T07:51:39;11.63;;;8.00;;
5381;SDS011;2714;49.852;6.564;2023-01-28T07:55:40;11.20;;;7.47;;
5381;SDS011;2714;49.852;6.564;2023-01-28T07:59:40;12.50;;;7.90;;
5381;SDS011;2714;49.852;6.564;2023-01-28T08:03:41;11.67;;;8.00;;
5381;SDS011;2714;49.852;6.564;2023-01-28T08:07:41;11.73;;;7.83;;
5381;SDS011;2714;49.852;6.564;2023-01-28T08:11:42;16.90;;;9.20;;
5381;SDS011;2714;49.852;6.564;2023-01-28T08:15:43;7.33;;;5.50;;
5381;SDS011;2714;49.852;6.564;2023-01-28T08:19:44;9.83;;;5.50;;
5381;SDS011;2714;49.852;6.564;2023-01-28T08:23:44;8.53;;;5.03;;
5381;SDS011;2714;49.852;6.564;2023-01-28T08:27:45;8.30;;;5.73;;
5381;SDS011;2714;49.852;6.564;2023-01-28T08:31:45;8.10;;;5.67;;
5381;SDS011;2714;49.852;6.564;2023-01-28T08:35:46;11.83;;;6.53;;
5381;SDS011;2714;49.852;6.564;2023-01-28T08:39:47;10.83;;;6.10;;
5381;SDS011;2714;49.852;6.564;2023-01-28T08:43:47;8.80;;;6.10;;
5381;SDS011;2714;49.852;6.564;2023-01-28T08:47:52;7.90;;;5.63;;
5381;SDS011;2714;49.852;6.564;2023-01-28T08:52:00;8.70;;;6.47;;
5381;SDS011;2714;49.852;6.564;2023-01-28T08:56:00;12.40;;;7.27;;
5381;SDS011;2714;49.852;6.564;2023-01-28T09:00:01;6.80;;;5.80;;
5381;SDS011;2714;49.852;6.564;2023-01-28T09:04:02;9.30;;;6.20;;
5381;SDS011;2714;49.852;6.564;2023-01-28T09:08:04;7.30;;;5.53;;
5381;SDS011;2714;49.852;6.564;2023-01-28T09:12:06;9.90;;;6.70;;
5381;SDS011;2714;49.852;6.564;2023-01-28T09:16:07;8.73;;;5.50;;
5381;SDS011;2714;49.852;6.564;2023-01-28T09:20:08;8.40;;;6.17;;
5381;SDS011;2714;49.852;6.564;2023-01-28T09:24:09;5.80;;;5.00;;
5381;SDS011;2714;49.852;6.564;2023-01-28T09:28:11;6.90;;;5.27;;
5381;SDS011;2714;49.852;6.564;2023-01-28T09:32:11;8.27;;;6.17;;
5381;SDS011;2714;49.852;6.564;2023-01-28T09:36:12;5.67;;;4.90;;
5381;SDS011;2714;49.852;6.564;2023-01-28T09:40:16;13.47;;;8.47;;
5381;SDS011;2714;49.852;6.564;2023-01-28T09:48:32;6.30;;;4.90;;
5381;SDS011;2714;49.852;6.564;2023-01-28T09:52:38;5.60;;;4.07;;
5381;SDS011;2714;49.852;6.564;2023-01-28T09:56:42;8.70;;;5.93;;
5381;SDS011;2714;49.852;6.564;2023-01-28T10:00:49;14.07;;;8.90;;
5381;SDS011;2714;49.852;6.564;2023-01-28T10:13:43;14.90;;;7.70;;
5381;SDS011;2714;49.852;6.564;2023-01-28T10:18:07;7.03;;;5.57;;
5381;SDS011;2714;49.852;6.564;2023-01-28T10:22:15;9.00;;;6.50;;
5381;SDS011;2714;49.852;6.564;2023-01-28T10:26:24;8.90;;;5.80;;
5381;SDS011;2714;49.852;6.564;2023-01-28T10:30:29;9.00;;;5.50;;
5381;SDS011;2714;49.852;6.564;2023-01-28T10:34:33;5.57;;;4.33;;
5381;SDS011;2714;49.852;6.564;2023-01-28T10:38:34;5.40;;;3.90;;
5381;SDS011;2714;49.852;6.564;2023-01-28T10:42:36;3.33;;;2.90;;
5381;SDS011;2714;49.852;6.564;2023-01-28T10:46:37;4.43;;;3.20;;
5381;SDS011;2714;49.852;6.564;2023-01-28T10:50:48;10.57;;;5.07;;
5381;SDS011;2714;49.852;6.564;2023-01-28T10:55:03;5.40;;;4.00;;
5381;SDS011;2714;49.852;6.564;2023-01-28T10:59:06;5.70;;;4.57;;
5381;SDS011;2714;49.852;6.564;2023-01-28T11:03:18;5.63;;;3.90;;
5381;SDS011;2714;49.852;6.564;2023-01-28T11:07:20;4.90;;;3.30;;
5381;SDS011;2714;49.852;6.564;2023-01-28T11:11:23;6.67;;;4.10;;
5381;SDS011;2714;49.852;6.564;2023-01-28T11:15:27;6.37;;;4.30;;
5381;SDS011;2714;49.852;6.564;2023-01-28T11:19:33;2.57;;;2.30;;
5381;SDS011;2714;49.852;6.564;2023-01-28T11:23:41;4.27;;;3.50;;
5381;SDS011;2714;49.852;6.564;2023-01-28T11:27:54;4.93;;;3.40;;
5381;SDS011;2714;49.852;6.564;2023-01-28T11:31:56;4.20;;;3.03;;
5381;SDS011;2714;49.852;6.564;2023-01-28T11:40:18;7.60;;;3.87;;
5381;SDS011;2714;49.852;6.564;2023-01-28T13:29:32;5.13;;;4.00;;
5381;SDS011;2714;49.852;6.564;2023-01-28T13:33:36;6.07;;;4.37;;
5381;SDS011;2714;49.852;6.564;2023-01-28T13:37:38;7.27;;;5.50;;
5381;SDS011;2714;49.852;6.564;2023-01-28T13:41:44;6.83;;;5.03;;
5381;SDS011;2714;49.852;6.564;2023-01-28T13:45:53;5.97;;;4.60;;
5381;SDS011;2714;49.852;6.564;2023-01-28T13:50:02;6.47;;;5.20;;
5381;SDS011;2714;49.852;6.564;2023-01-28T13:54:07;7.50;;;5.70;;
5381;SDS011;2714;49.852;6.564;2023-01-28T13:58:21;5.97;;;4.50;;
5381;SDS011;2714;49.852;6.564;2023-01-28T14:07:05;6.40;;;4.97;;
5381;SDS011;2714;49.852;6.564;2023-01-28T14:16:13;6.07;;;5.30;;
5381;SDS011;2714;49.852;6.564;2023-01-28T14:24:36;9.53;;;7.37;;
5381;SDS011;2714;49.852;6.564;2023-01-28T14:33:10;6.90;;;5.13;;
5381;SDS011;2714;49.852;6.564;2023-01-28T14:37:16;8.00;;;5.83;;
5381;SDS011;2714;49.852;6.564;2023-01-28T14:41:21;9.13;;;6.97;;
5381;SDS011;2714;49.852;6.564;2023-01-28T14:45:32;12.53;;;7.67;;
5381;SDS011;2714;49.852;6.564;2023-01-28T14:50:05;53.93;;;27.03;;
5381;SDS011;2714;49.852;6.564;2023-01-28T14:58:32;10.20;;;7.90;;
5381;SDS011;2714;49.852;6.564;2023-01-28T15:02:41;19.77;;;14.30;;
5381;SDS011;2714;49.852;6.564;2023-01-28T15:06:43;13.17;;;9.80;;
5381;SDS011;2714;49.852;6.564;2023-01-28T15:10:44;22.90;;;13.53;;
5381;SDS011;2714;49.852;6.564;2023-01-28T15:14:44;13.67;;;10.30;;
5381;SDS011;2714;49.852;6.564;2023-01-28T15:18:45;14.23;;;9.40;;
5381;SDS011;2714;49.852;6.564;2023-01-28T15:22:47;14.00;;;9.93;;
5381;SDS011;2714;49.852;6.564;2023-01-28T15:26:49;44.83;;;28.97;;
5381;SDS011;2714;49.852;6.564;2023-01-28T15:30:50;17.83;;;11.60;;
5381;SDS011;2714;49.852;6.564;2023-01-28T15:34:51;19.33;;;14.10;;
5381;SDS011;2714;49.852;6.564;2023-01-28T15:38:52;16.93;;;11.50;;
5381;SDS011;2714;49.852;6.564;2023-01-28T15:42:53;17.83;;;11.00;;
5381;SDS011;2714;49.852;6.564;2023-01-28T15:47:00;16.13;;;11.17;;
5381;SDS011;2714;49.852;6.564;2023-01-28T15:51:04;13.33;;;9.23;;
5381;SDS011;2714;49.852;6.564;2023-01-28T15:55:07;9.03;;;6.40;;
5381;SDS011;2714;49.852;6.564;2023-01-28T15:59:34;15.07;;;9.97;;
5381;SDS011;2714;49.852;6.564;2023-01-28T16:03:34;18.20;;;11.93;;
5381;SDS011;2714;49.852;6.564;2023-01-28T16:07:43;39.97;;;25.20;;
5381;SDS011;2714;49.852;6.564;2023-01-28T16:11:45;15.97;;;10.00;;
5381;SDS011;2714;49.852;6.564;2023-01-28T16:15:47;99.67;;;43.97;;
5381;SDS011;2714;49.852;6.564;2023-01-28T16:19:57;16.67;;;11.00;;
5381;SDS011;2714;49.852;6.564;2023-01-28T16:24:02;28.30;;;19.40;;
5381;SDS011;2714;49.852;6.564;2023-01-28T16:28:18;21.47;;;13.97;;
5381;SDS011;2714;49.852;6.564;2023-01-28T16:36:31;20.53;;;12.27;;
5381;SDS011;2714;49.852;6.564;2023-01-28T16:40:34;20.27;;;13.20;;
5381;SDS011;2714;49.852;6.564;2023-01-28T16:44:37;23.63;;;13.50;;
5381;SDS011;2714;49.852;6.564;2023-01-28T16:48:38;13.87;;;10.17;;
5381;SDS011;2714;49.852;6.564;2023-01-28T16:52:42;20.97;;;13.67;;
5381;SDS011;2714;49.852;6.564;2023-01-28T16:56:45;21.97;;;14.00;;
5381;SDS011;2714;49.852;6.564;2023-01-28T17:00:45;23.73;;;15.30;;
5381;SDS011;2714;49.852;6.564;2023-01-28T17:04:46;19.03;;;12.63;;
5381;SDS011;2714;49.852;6.564;2023-01-28T17:08:46;21.97;;;13.60;;
5381;SDS011;2714;49.852;6.564;2023-01-28T17:12:47;17.17;;;11.73;;
5381;SDS011;2714;49.852;6.564;2023-01-28T17:16:48;15.97;;;11.67;;
5381;SDS011;2714;49.852;6.564;2023-01-28T17:20:48;20.77;;;12.50;;
5381;SDS011;2714;49.852;6.564;2023-01-28T17:24:49;17.67;;;12.20;;
5381;SDS011;2714;49.852;6.564;2023-01-28T17:28:50;19.70;;;13.90;;
5381;SDS011;2714;49.852;6.564;2023-01-28T17:32:52;23.83;;;15.83;;
5381;SDS011;2714;49.852;6.564;2023-01-28T17:36:53;33.30;;;18.03;;
5381;SDS011;2714;49.852;6.564;2023-01-28T17:40:53;29.80;;;17.23;;
5381;SDS011;2714;49.852;6.564;2023-01-28T17:44:59;25.43;;;15.80;;
5381;SDS011;2714;49.852;6.564;2023-01-28T17:49:03;21.23;;;12.53;;
5381;SDS011;2714;49.852;6.564;2023-01-28T17:53:03;16.97;;;11.13;;
5381;SDS011;2714;49.852;6.564;2023-01-28T17:57:04;20.20;;;12.70;;
5381;SDS011;2714;49.852;6.564;2023-01-28T18:01:08;26.20;;;17.70;;
5381;SDS011;2714;49.852;6.564;2023-01-28T18:05:09;17.80;;;13.07;;
5381;SDS011;2714;49.852;6.564;2023-01-28T18:09:11;31.47;;;15.63;;
5381;SDS011;2714;49.852;6.564;2023-01-28T18:13:12;22.47;;;13.33;;
5381;SDS011;2714;49.852;6.564;2023-01-28T18:17:12;19.97;;;13.83;;
5381;SDS011;2714;49.852;6.564;2023-01-28T18:25:37;19.93;;;12.80;;
5381;SDS011;2714;49.852;6.564;2023-01-28T18:29:37;18.97;;;12.63;;
5381;SDS011;2714;49.852;6.564;2023-01-28T18:33:38;20.77;;;13.37;;
5381;SDS011;2714;49.852;6.564;2023-01-28T18:37:39;21.47;;;13.20;;
5381;SDS011;2714;49.852;6.564;2023-01-28T18:41:39;25.57;;;14.10;;
5381;SDS011;2714;49.852;6.564;2023-01-28T18:45:40;19.90;;;13.30;;
5381;SDS011;2714;49.852;6.564;2023-01-28T18:49:41;26.63;;;15.37;;
5381;SDS011;2714;49.852;6.564;2023-01-28T18:53:41;25.53;;;15.10;;
5381;SDS011;2714;49.852;6.564;2023-01-28T18:57:42;24.90;;;15.30;;
5381;SDS011;2714;49.852;6.564;2023-01-28T19:01:43;20.70;;;13.43;;
5381;SDS011;2714;49.852;6.564;2023-01-28T19:05:46;25.37;;;16.20;;
5381;SDS011;2714;49.852;6.564;2023-01-28T19:09:47;25.50;;;16.27;;
5381;SDS011;2714;49.852;6.564;2023-01-28T19:13:47;28.13;;;17.63;;
5381;SDS011;2714;49.852;6.564;2023-01-28T19:17:48;23.33;;;15.33;;
5381;SDS011;2714;49.852;6.564;2023-01-28T19:21:48;21.50;;;14.27;;
5381;SDS011;2714;49.852;6.564;2023-01-28T19:25:49;22.87;;;13.97;;
5381;SDS011;2714;49.852;6.564;2023-01-28T19:29:49;23.93;;;14.87;;
5381;SDS011;2714;49.852;6.564;2023-01-28T19:33:54;24.63;;;14.80;;
5381;SDS011;2714;49.852;6.564;2023-01-28T19:37:56;20.50;;;13.13;;
5381;SDS011;2714;49.852;6.564;2023-01-28T19:41:57;20.83;;;13.17;;
5381;SDS011;2714;49.852;6.564;2023-01-28T19:46:02;21.60;;;13.60;;
5381;SDS011;2714;49.852;6.564;2023-01-28T19:50:04;25.10;;;15.50;;
5381;SDS011;2714;49.852;6.564;2023-01-28T19:54:06;24.33;;;14.77;;
5381;SDS011;2714;49.852;6.564;2023-01-28T19:58:06;29.00;;;14.73;;
5381;SDS011;2714;49.852;6.564;2023-01-28T20:02:07;22.60;;;15.57;;
5381;SDS011;2714;49.852;6.564;2023-01-28T20:06:12;24.10;;;14.40;;
5381;SDS011;2714;49.852;6.564;2023-01-28T20:10:14;25.60;;;15.20;;
5381;SDS011;2714;49.852;6.564;2023-01-28T20:14:15;26.47;;;16.40;;
5381;SDS011;2714;49.852;6.564;2023-01-28T20:18:17;29.43;;;16.80;;
5381;SDS011;2714;49.852;6.564;2023-01-28T20:22:17;36.07;;;21.00;;
5381;SDS011;2714;49.852;6.564;2023-01-28T20:26:19;29.00;;;18.33;;
5381;SDS011;2714;49.852;6.564;2023-01-28T20:30:21;23.90;;;14.20;;
5381;SDS011;2714;49.852;6.564;2023-01-28T20:34:25;25.43;;;16.93;;
5381;SDS011;2714;49.852;6.564;2023-01-28T20:38:25;35.13;;;20.63;;
5381;SDS011;2714;49.852;6.564;2023-01-28T20:42:26;32.07;;;21.40;;
5381;SDS011;2714;49.852;6.564;2023-01-28T20:46:28;24.80;;;16.07;;
5381;SDS011;2714;49.852;6.564;2023-01-28T20:50:30;64.90;;;38.00;;
5381;SDS011;2714;49.852;6.564;2023-01-28T20:54:30;26.40;;;17.20;;
5381;SDS011;2714;49.852;6.564;2023-01-28T20:58:31;22.10;;;15.80;;
5381;SDS011;2714;49.852;6.564;2023-01-28T21:02:32;20.70;;;13.73;;
5381;SDS011;2714;49.852;6.564;2023-01-28T21:06:36;21.27;;;13.63;;
5381;SDS011;2714;49.852;6.564;2023-01-28T21:10:38;26.77;;;16.97;;
5381;SDS011;2714;49.852;6.564;2023-01-28T21:14:40;27.60;;;18.50;;
5381;SDS011;2714;49.852;6.564;2023-01-28T21:18:41;28.07;;;17.97;;
5381;SDS011;2714;49.852;6.564;2023-01-28T21:22:42;22.77;;;16.23;;
5381;SDS011;2714;49.852;6.564;2023-01-28T21:26:42;28.20;;;20.03;;
5381;SDS011;2714;49.852;6.564;2023-01-28T21:30:43;20.27;;;14.13;;
5381;SDS011;2714;49.852;6.564;2023-01-28T21:34:44;21.57;;;13.50;;
5381;SDS011;2714;49.852;6.564;2023-01-28T21:38:48;21.80;;;13.30;;
5381;SDS011;2714;49.852;6.564;2023-01-28T21:42:52;21.03;;;13.63;;
5381;SDS011;2714;49.852;6.564;2023-01-28T21:46:53;21.27;;;14.47;;
5381;SDS011;2714;49.852;6.564;2023-01-28T21:50:54;21.50;;;13.40;;
5381;SDS011;2714;49.852;6.564;2023-01-28T21:55:13;39.43;;;24.33;;
5381;SDS011;2714;49.852;6.564;2023-01-28T22:03:46;20.13;;;12.97;;
5381;SDS011;2714;49.852;6.564;2023-01-28T22:07:47;20.73;;;13.83;;
5381;SDS011;2714;49.852;6.564;2023-01-28T22:11:47;28.07;;;16.57;;
5381;SDS011;2714;49.852;6.564;2023-01-28T22:15:48;25.07;;;13.83;;
5381;SDS011;2714;49.852;6.564;2023-01-28T22:19:48;24.33;;;16.17;;
5381;SDS011;2714;49.852;6.564;2023-01-28T22:23:49;22.73;;;15.07;;
5381;SDS011;2714;49.852;6.564;2023-01-28T22:27:50;20.17;;;13.37;;
5381;SDS011;2714;49.852;6.564;2023-01-28T22:31:51;21.93;;;14.40;;
5381;SDS011;2714;49.852;6.564;2023-01-28T22:35:53;21.03;;;13.77;;
5381;SDS011;2714;49.852;6.564;2023-01-28T22:39:54;20.07;;;13.47;;
5381;SDS011;2714;49.852;6.564;2023-01-28T22:43:54;22.10;;;13.50;;
5381;SDS011;2714;49.852;6.564;2023-01-28T22:47:55;22.10;;;13.70;;
5381;SDS011;2714;49.852;6.564;2023-01-28T22:51:56;29.13;;;15.67;;
5381;SDS011;2714;49.852;6.564;2023-01-28T22:55:56;17.30;;;12.50;;
5381;SDS011;2714;49.852;6.564;2023-01-28T22:59:57;16.07;;;10.87;;
5381;SDS011;2714;49.852;6.564;2023-01-28T23:03:58;15.50;;;10.90;;
5381;SDS011;2714;49.852;6.564;2023-01-28T23:07:58;17.57;;;10.53;;
5381;SDS011;2714;49.852;6.564;2023-01-28T23:12:09;20.43;;;13.17;;
5381;SDS011;2714;49.852;6.564;2023-01-28T23:16:10;22.60;;;12.67;;
5381;SDS011;2714;49.852;6.564;2023-01-28T23:20:37;13.80;;;9.90;;
5381;SDS011;2714;49.852;6.564;2023-01-28T23:24:57;18.30;;;11.30;;
5381;SDS011;2714;49.852;6.564;2023-01-28T23:28:57;14.57;;;9.70;;
5381;SDS011;2714;49.852;6.564;2023-01-28T23:32:59;17.03;;;10.60;;
5381;SDS011;2714;49.852;6.564;2023-01-28T23:37:01;17.73;;;12.33;;
5381;SDS011;2714;49.852;6.564;2023-01-28T23:41:02;14.20;;;10.10;;
5381;SDS011;2714;49.852;6.564;2023-01-28T23:45:04;15.83;;;10.93;;
5381;SDS011;2714;49.852;6.564;2023-01-28T23:49:05;15.07;;;10.40;;
5381;SDS011;2714;49.852;6.564;2023-01-28T23:53:07;17.10;;;11.40;;
5381;SDS011;2714;49.852;6.564;2023-01-28T23:57:12;18.60;;;12.07;;
